createdAt,value
2022-11-22T00:01:26.689Z,50.79
2022-11-22T00:06:30.444Z,51.06
2022-11-22T00:11:35.222Z,51.91
2022-11-22T00:16:38.677Z,51.60
2022-11-22T00:21:42.142Z,51.88
2022-11-22T00:26:46.859Z,51.85
2022-11-22T00:31:50.438Z,51.87
2022-11-22T00:36:53.861Z,51.48
2022-11-22T00:41:58.729Z,51.62
2022-11-22T00:47:02.095Z,51.89
2022-11-22T00:52:05.705Z,51.88
2022-11-22T00:57:10.492Z,52.05
2022-11-22T01:02:13.872Z,52.25
2022-11-22T01:07:17.312Z,52.09
2022-11-22T01:12:22.072Z,52.88
2022-11-22T01:17:25.471Z,51.80
2022-11-22T01:22:28.823Z,52.12
2022-11-22T01:27:33.521Z,51.40
2022-11-22T01:32:36.877Z,51.25
2022-11-22T01:37:40.247Z,51.78
2022-11-22T01:42:47.841Z,51.70
2022-11-22T01:47:51.258Z,52.23
2022-11-22T01:52:55.174Z,51.51
2022-11-22T01:58:00.154Z,52.01
2022-11-22T02:03:06.012Z,52.30
2022-11-22T02:08:12.532Z,51.80
2022-11-22T02:13:18.027Z,51.39
2022-11-22T02:18:21.429Z,51.32
2022-11-22T02:23:30.436Z,51.43
2022-11-22T02:28:37.997Z,51.53
2022-11-22T02:33:41.357Z,51.05
2022-11-22T02:38:44.851Z,50.93
2022-11-22T02:43:49.655Z,51.73
2022-11-22T02:48:53.056Z,50.94
2022-11-22T02:53:56.803Z,51.08
2022-11-22T02:59:01.578Z,51.76
2022-11-22T03:04:05.192Z,51.70
2022-11-22T03:09:08.512Z,51.83
2022-11-22T03:14:13.241Z,51.22
2022-11-22T03:19:17.115Z,51.11
2022-11-22T03:24:20.791Z,50.93
2022-11-22T03:29:25.497Z,50.63
2022-11-22T03:34:28.865Z,50.54
2022-11-22T03:39:32.372Z,51.13
2022-11-22T03:44:37.244Z,51.00
2022-11-22T03:49:40.618Z,51.62
2022-11-22T03:54:44.001Z,51.34
2022-11-22T03:59:48.721Z,51.33
2022-11-22T04:04:52.080Z,50.94
2022-11-22T04:09:55.468Z,51.37
2022-11-22T04:15:08.933Z,53.48
2022-11-22T04:20:32.687Z,51.62
2022-11-22T04:25:37.719Z,51.58
2022-11-22T04:31:00.289Z,51.24
2022-11-22T04:36:05.780Z,51.36
2022-11-22T04:41:12.252Z,51.68
2022-11-22T04:46:17.452Z,51.81
2022-11-22T04:51:38.421Z,52.44
2022-11-22T04:56:41.812Z,52.30
2022-11-22T05:01:46.588Z,52.32
2022-11-22T05:06:50.143Z,51.95
2022-11-22T05:11:53.656Z,51.78
2022-11-22T05:16:58.604Z,52.07
2022-11-22T05:22:01.989Z,51.71
2022-11-22T05:27:05.517Z,51.58
2022-11-22T05:32:10.233Z,51.54
2022-11-22T05:37:13.579Z,51.64
2022-11-22T05:42:16.981Z,51.86
2022-11-22T05:47:21.680Z,51.47
2022-11-22T05:52:25.122Z,51.26
2022-11-22T05:57:28.746Z,51.31
2022-11-22T06:02:33.594Z,51.03
2022-11-22T06:07:37.036Z,51.26
2022-11-22T06:12:40.453Z,50.97
2022-11-22T06:17:45.241Z,50.93
2022-11-22T06:22:48.577Z,50.91
2022-11-22T06:27:51.957Z,51.09
2022-11-22T06:32:58.264Z,51.68
2022-11-22T06:38:01.618Z,50.89
2022-11-22T06:43:05.608Z,50.69
2022-11-22T06:48:10.402Z,50.58
2022-11-22T06:53:32.692Z,50.30
2022-11-22T06:58:37.297Z,50.29
2022-11-22T07:03:42.617Z,50.47
2022-11-22T07:08:47.156Z,51.01
2022-11-22T07:13:50.803Z,50.53
2022-11-22T07:18:55.825Z,50.94
2022-11-22T07:23:59.335Z,50.27
2022-11-22T07:29:02.924Z,50.45
2022-11-22T07:34:07.683Z,49.88
2022-11-22T07:39:12.304Z,49.83
2022-11-22T07:44:15.757Z,49.60
2022-11-22T07:49:26.052Z,49.59
2022-11-22T07:54:32.986Z,49.34
2022-11-22T07:59:36.489Z,48.96
2022-11-22T08:04:41.379Z,48.89
2022-11-22T08:09:47.433Z,48.92
2022-11-22T08:14:53.509Z,48.77
2022-11-22T08:19:58.302Z,48.32
2022-11-22T08:25:02.055Z,48.90
2022-11-22T08:30:06.483Z,48.76
2022-11-22T08:35:11.553Z,48.60
2022-11-22T08:40:15.070Z,48.87
2022-11-22T08:45:18.630Z,48.78
2022-11-22T08:50:23.692Z,48.95
2022-11-22T08:55:27.245Z,48.53
2022-11-22T09:00:33.578Z,48.11
2022-11-22T09:11:02.401Z,48.12
2022-11-22T09:16:08.119Z,47.81
2022-11-22T09:21:15.757Z,47.98
2022-11-22T09:26:21.352Z,47.91
2022-11-22T09:31:25.577Z,47.34
2022-11-22T09:36:30.924Z,47.05
2022-11-22T09:42:05.086Z,46.84
2022-11-22T09:47:17.750Z,46.58
2022-11-22T09:52:28.629Z,46.27
2022-11-22T09:57:35.291Z,46.15
2022-11-22T10:02:59.538Z,45.94
2022-11-22T10:08:14.453Z,45.85
2022-11-22T10:13:21.350Z,46.01
2022-11-22T10:18:35.661Z,46.40
2022-11-22T10:23:41.595Z,45.72
2022-11-22T10:28:52.672Z,45.63
2022-11-22T10:34:01.853Z,45.28
2022-11-22T10:39:18.632Z,44.69
2022-11-22T10:44:32.519Z,44.13
2022-11-22T10:49:46.742Z,44.66
2022-11-22T10:54:56.646Z,44.22
2022-11-22T11:00:18.665Z,44.37
2022-11-22T11:05:26.369Z,44.13
2022-11-22T11:10:36.994Z,43.33
2022-11-22T11:15:44.050Z,43.93
2022-11-22T11:20:47.863Z,43.11
2022-11-22T11:25:53.002Z,43.41
2022-11-22T11:30:57.844Z,43.27
2022-11-22T11:36:05.354Z,42.79
2022-11-22T11:41:22.915Z,43.19
2022-11-22T11:46:27.563Z,43.02
2022-11-22T11:51:37.263Z,42.44
2022-11-22T11:56:48.850Z,42.25
2022-11-22T12:01:56.757Z,42.29
2022-11-22T12:07:17.841Z,42.27
2022-11-22T12:12:34.033Z,42.31
2022-11-22T12:17:43.289Z,42.25
2022-11-22T12:22:52.590Z,42.40
2022-11-22T12:27:58.497Z,41.79
2022-11-22T12:33:04.430Z,42.53
2022-11-22T12:38:12.893Z,41.90
2022-11-22T12:43:23.154Z,41.58
2022-11-22T12:48:31.175Z,41.28
2022-11-22T12:53:36.824Z,41.53
2022-11-22T12:58:46.154Z,41.45
2022-11-22T13:03:53.467Z,42.06
2022-11-22T13:09:03.803Z,41.95
2022-11-22T13:14:17.866Z,41.41
2022-11-22T13:19:26.907Z,41.82
2022-11-22T13:24:38.933Z,41.70
2022-11-22T13:29:44.597Z,41.95
2022-11-22T13:35:17.093Z,41.46
2022-11-22T13:40:26.233Z,41.10
2022-11-22T13:45:47.587Z,41.35
2022-11-22T13:51:01.142Z,41.19
2022-11-22T13:56:52.684Z,41.12
2022-11-22T14:02:00.086Z,41.22
2022-11-22T14:07:06.649Z,41.90
2022-11-22T14:12:40.200Z,41.58
2022-11-22T14:17:51.520Z,41.51
2022-11-22T14:22:57.882Z,40.77
2022-11-22T14:28:08.572Z,41.20
2022-11-22T14:33:17.689Z,41.42
2022-11-22T14:38:32.961Z,41.73
2022-11-22T14:43:38.985Z,42.29
2022-11-22T14:48:47.977Z,42.31
2022-11-22T14:53:54.481Z,42.56
2022-11-22T14:58:59.898Z,43.16
2022-11-22T15:09:11.860Z,43.18
2022-11-22T15:10:28.321Z,43.55
2022-11-22T15:59:23.858Z,44.83
2022-11-22T16:04:29.841Z,44.94
2022-11-22T16:09:36.620Z,45.11
2022-11-22T16:14:43.229Z,45.20
2022-11-22T16:19:46.648Z,45.23
2022-11-22T16:24:51.521Z,45.41
2022-11-22T16:29:55.102Z,45.24
2022-11-22T16:35:21.796Z,46.05
2022-11-22T16:40:23.252Z,45.76
2022-11-22T16:45:26.662Z,46.29
2022-11-22T16:50:30.050Z,45.77
2022-11-22T16:55:35.137Z,45.93
2022-11-22T17:00:38.698Z,46.15
2022-11-22T17:05:42.362Z,46.70
2022-11-22T17:10:48.848Z,46.52
2022-11-22T17:15:52.865Z,46.54
2022-11-22T17:20:56.312Z,46.63
2022-11-22T17:26:01.157Z,46.48
2022-11-22T17:31:06.769Z,47.27
2022-11-22T17:36:19.373Z,47.29
2022-11-22T17:41:24.328Z,47.15
2022-11-22T17:46:28.028Z,46.95
2022-11-22T17:51:32.132Z,46.90
2022-11-22T17:56:37.545Z,46.65
2022-11-22T18:01:40.967Z,46.84
2022-11-22T18:06:44.358Z,46.48
2022-11-22T18:11:49.557Z,46.64
2022-11-22T18:16:53.257Z,46.58
2022-11-22T18:21:56.665Z,46.69
2022-11-22T18:27:01.481Z,46.42
2022-11-22T18:32:05.113Z,46.35
2022-11-22T18:37:08.571Z,46.14
2022-11-22T18:42:15.074Z,46.44
2022-11-22T18:47:18.450Z,45.93
2022-11-22T18:52:22.988Z,45.87
2022-11-22T18:57:28.810Z,45.79
2022-11-22T19:02:33.920Z,45.98
2022-11-22T19:07:37.707Z,45.96
2022-11-22T19:12:43.458Z,45.61
2022-11-22T19:17:46.884Z,45.74
2022-11-22T19:22:50.646Z,45.94
2022-11-22T19:27:55.501Z,46.12
2022-11-22T19:32:59.156Z,46.58
2022-11-22T19:38:02.485Z,47.26
2022-11-22T19:43:10.071Z,47.56
2022-11-22T19:48:16.674Z,47.54
2022-11-22T19:53:20.227Z,47.44
2022-11-22T19:58:25.144Z,47.45
2022-11-22T20:03:28.516Z,46.89
2022-11-22T20:08:32.094Z,47.39
2022-11-22T20:13:38.072Z,46.91
2022-11-22T20:18:41.717Z,46.46
2022-11-22T20:23:45.187Z,46.75
2022-11-22T20:28:55.948Z,46.70
2022-11-22T20:34:00.176Z,47.32
2022-11-22T20:39:08.613Z,46.99
2022-11-22T20:44:15.293Z,46.81
2022-11-22T20:49:18.803Z,46.90
2022-11-22T20:54:22.809Z,46.77
2022-11-22T20:59:27.552Z,46.73
2022-11-22T21:04:31.151Z,46.89
2022-11-22T21:09:34.716Z,46.80
2022-11-22T21:14:39.617Z,46.84
2022-11-22T21:19:43.086Z,46.45
2022-11-22T21:24:46.593Z,46.32
2022-11-22T21:29:51.462Z,45.92
2022-11-22T21:34:54.860Z,45.75
2022-11-22T21:39:58.326Z,45.68
2022-11-22T21:45:03.391Z,45.54
2022-11-22T21:50:11.673Z,45.67
2022-11-22T21:55:15.541Z,45.39
2022-11-22T22:00:20.705Z,45.68
2022-11-22T22:05:24.108Z,45.23
2022-11-22T22:10:27.536Z,45.16
2022-11-22T22:15:32.609Z,45.01
2022-11-22T22:20:36.580Z,44.90
2022-11-22T22:25:41.524Z,45.46
2022-11-22T22:30:47.042Z,45.16
2022-11-22T22:35:50.854Z,45.37
2022-11-22T22:40:55.280Z,45.16
2022-11-22T22:46:06.398Z,45.43
2022-11-22T22:51:13.289Z,45.23
2022-11-22T22:56:18.572Z,44.91
2022-11-22T23:01:24.681Z,44.97
2022-11-22T23:06:30.022Z,44.84
2022-11-22T23:11:51.920Z,44.97
2022-11-22T23:16:58.201Z,44.65
2022-11-22T23:22:02.080Z,45.06
2022-11-22T23:27:05.609Z,45.17
2022-11-22T23:32:10.492Z,45.07
2022-11-22T23:37:14.001Z,44.77
2022-11-22T23:42:17.492Z,44.76
2022-11-22T23:47:22.419Z,45.19
2022-11-22T23:52:25.891Z,45.38
2022-11-22T23:57:29.329Z,45.58
